Time;durP1;ratioP1;P1;durP2;ratioP2;P2;SDS_P1;SDS_P2;PMS_P1;PMS_P2;Temp;Humidity;BMP_temperature;BMP_pressure;BME280_temperature;BME280_humidity;BME280_pressure;Samples;Min_cycle;Max_cycle;Signal;HPM_P1;HPM_P2
2021/11/09 00:00:29;;;;;;;;;;;10.00;91.60;;;;;;4375935;32;30201;-87
2021/11/09 00:03:06;;;;;;;;;;;9.90;91.50;;;;;;4351291;32;26651;-86
2021/11/09 00:05:49;;;;;;;;;;;9.90;91.50;;;;;;4352542;32;20059;-85
2021/11/09 00:08:20;;;;;;;;;;;9.90;91.50;;;;;;4363875;32;29302;-86
2021/11/09 00:10:50;;;;;;;;;;;9.90;91.50;;;;;;4351074;32;31661;-87
2021/11/09 00:13:21;;;;;;;;;;;9.90;91.60;;;;;;4350700;32;25909;-86
2021/11/09 00:15:49;;;;;;;;;;;9.90;91.60;;;;;;4362952;32;35665;-85
2021/11/09 00:18:18;;;;;;;;;;;9.90;91.60;;;;;;4364401;32;20015;-85
2021/11/09 00:20:48;;;;;;;;;;;9.90;91.60;;;;;;4350790;32;30205;-87
2021/11/09 00:23:15;;;;;;;;;;;9.80;91.60;;;;;;4376125;32;20042;-87
2021/11/09 00:25:43;;;;;;;;;;;9.80;91.60;;;;;;4362878;32;40546;-87
2021/11/09 00:28:11;;;;;;;;;;;9.80;91.70;;;;;;4350288;32;44441;-87
2021/11/09 00:30:39;;;;;;;;;;;9.80;91.70;;;;;;4362717;32;37510;-85
2021/11/09 00:33:06;;;;;;;;;;;9.80;91.80;;;;;;4350037;32;41592;-86
2021/11/09 00:35:36;;;;;;;;;;;9.80;91.70;;;;;;4350605;32;32182;-86
2021/11/09 00:38:05;;;;;;;;;;;9.80;91.70;;;;;;4350275;32;34303;-86
2021/11/09 00:40:36;;;;;;;;;;;9.70;91.80;;;;;;4362675;32;30332;-86
2021/11/09 00:43:05;;;;;;;;;;;9.70;91.80;;;;;;4362846;32;44165;-86
2021/11/09 00:45:33;;;;;;;;;;;9.70;91.80;;;;;;4362315;32;41762;-86
2021/11/09 00:48:01;;;;;;;;;;;9.70;91.90;;;;;;4363828;32;20056;-86
2021/11/09 00:50:31;;;;;;;;;;;9.70;92.00;;;;;;4351358;32;20026;-86
2021/11/09 00:52:59;;;;;;;;;;;9.70;92.10;;;;;;4362509;32;43096;-85
2021/11/09 00:55:29;;;;;;;;;;;9.60;92.10;;;;;;4362619;32;38478;-85
2021/11/09 00:57:59;;;;;;;;;;;9.60;92.10;;;;;;4350034;32;38375;-87
2021/11/09 01:00:30;;;;;;;;;;;9.60;92.10;;;;;;4349998;32;43523;-86
2021/11/09 01:03:00;;;;;;;;;;;9.60;92.20;;;;;;4350492;32;20012;-86
2021/11/09 01:05:31;;;;;;;;;;;9.60;92.20;;;;;;4363043;32;20009;-84
2021/11/09 01:08:03;;;;;;;;;;;9.60;92.20;;;;;;4351298;32;19992;-86
2021/11/09 01:10:35;;;;;;;;;;;9.50;92.10;;;;;;4362811;32;38041;-85
2021/11/09 01:13:12;;;;;;;;;;;9.50;92.10;;;;;;4349687;32;46789;-85
2021/11/09 01:15:47;;;;;;;;;;;9.50;92.00;;;;;;4375890;32;38558;-85
2021/11/09 01:18:19;;;;;;;;;;;9.60;92.10;;;;;;4375772;32;42677;-86
2021/11/09 01:20:46;;;;;;;;;;;9.50;92.00;;;;;;4362681;32;35826;-86
2021/11/09 01:23:14;;;;;;;;;;;9.50;92.00;;;;;;4361789;32;43631;-86
2021/11/09 01:25:41;;;;;;;;;;;9.50;92.20;;;;;;4361531;32;38654;-87
2021/11/09 01:28:09;;;;;;;;;;;9.40;92.20;;;;;;4361876;32;32617;-85
2021/11/09 01:30:40;;;;;;;;;;;9.40;92.20;;;;;;4350752;32;20005;-84
2021/11/09 01:33:07;;;;;;;;;;;9.40;92.20;;;;;;4362019;32;31782;-86
2021/11/09 01:35:40;;;;;;;;;;;9.40;92.20;;;;;;4350787;32;20063;-86
2021/11/09 01:38:09;;;;;;;;;;;9.40;92.20;;;;;;4375819;32;34934;-86
2021/11/09 01:40:38;;;;;;;;;;;9.40;92.20;;;;;;4361853;32;35127;-85
2021/11/09 01:43:08;;;;;;;;;;;9.40;92.10;;;;;;4362107;32;39912;-85
2021/11/09 01:45:35;;;;;;;;;;;9.40;92.10;;;;;;4361713;32;38274;-85
2021/11/09 01:48:03;;;;;;;;;;;9.40;92.20;;;;;;4349584;32;31640;-85
2021/11/09 01:50:38;;;;;;;;;;;9.40;92.20;;;;;;4362961;32;20016;-85
2021/11/09 01:53:09;;;;;;;;;;;9.40;92.10;;;;;;4376045;32;20016;-85
2021/11/09 01:55:37;;;;;;;;;;;9.40;92.10;;;;;;4361929;32;38989;-85
2021/11/09 01:58:08;;;;;;;;;;;9.40;92.00;;;;;;4361684;32;39458;-85
2021/11/09 02:00:38;;;;;;;;;;;9.30;92.00;;;;;;4362795;32;20500;-85
2021/11/09 02:03:08;;;;;;;;;;;9.30;91.90;;;;;;4350117;32;20001;-84
2021/11/09 02:05:35;;;;;;;;;;;9.40;92.00;;;;;;4350191;32;20012;-85
2021/11/09 02:08:05;;;;;;;;;;;9.30;92.00;;;;;;4363000;32;20473;-86
2021/11/09 02:10:34;;;;;;;;;;;9.30;92.10;;;;;;4349984;32;21222;-86
2021/11/09 02:13:04;;;;;;;;;;;9.30;92.10;;;;;;4362243;32;20019;-86
2021/11/09 02:15:36;;;;;;;;;;;9.30;92.10;;;;;;4361307;32;45050;-86
2021/11/09 02:18:05;;;;;;;;;;;9.20;92.10;;;;;;4361865;32;35352;-86
2021/11/09 02:20:36;;;;;;;;;;;9.30;92.00;;;;;;4362823;32;20404;-86
2021/11/09 02:23:07;;;;;;;;;;;9.30;92.00;;;;;;4375726;32;29874;-86
2021/11/09 02:25:34;;;;;;;;;;;9.30;92.00;;;;;;4373953;32;33682;-85
2021/11/09 02:28:05;;;;;;;;;;;9.20;92.00;;;;;;4349264;32;32107;-86
2021/11/09 02:30:35;;;;;;;;;;;9.20;91.90;;;;;;4349078;32;41561;-86
2021/11/09 02:33:05;;;;;;;;;;;9.20;92.00;;;;;;4349485;32;33630;-86
2021/11/09 02:35:35;;;;;;;;;;;9.20;92.10;;;;;;4376238;32;29690;-86
2021/11/09 02:38:05;;;;;;;;;;;9.20;92.10;;;;;;4377772;32;36703;-86
2021/11/09 02:40:35;;;;;;;;;;;9.20;92.10;;;;;;4363872;32;46721;-86
2021/11/09 02:43:05;;;;;;;;;;;9.20;92.10;;;;;;4353438;32;20444;-86
2021/11/09 02:45:45;;;;;;;;;;;9.20;92.10;;;;;;4378924;32;20020;-86
2021/11/09 02:48:26;;;;;;;;;;;9.20;92.10;;;;;;4365606;32;20095;-85
2021/11/09 02:51:00;;;;;;;;;;;9.20;92.10;;;;;;4365011;32;20055;-86
2021/11/09 02:53:36;;;;;;;;;;;9.10;92.10;;;;;;4352895;32;20007;-86
2021/11/09 02:56:22;;;;;;;;;;;9.10;92.10;;;;;;4364888;32;19997;-85
2021/11/09 02:59:02;;;;;;;;;;;9.10;92.10;;;;;;4352575;32;20031;-86
2021/11/09 03:06:56;;;;;;;;;;;9.10;92.00;;;;;;4378818;32;20130;-85
2021/11/09 03:09:41;;;;;;;;;;;9.10;92.00;;;;;;4364702;32;21317;-85
2021/11/09 03:12:11;;;;;;;;;;;9.10;92.00;;;;;;4365510;32;20008;-86
2021/11/09 03:14:42;;;;;;;;;;;9.10;92.00;;;;;;4352471;32;19997;-86
2021/11/09 03:17:20;;;;;;;;;;;9.00;91.90;;;;;;4365523;32;20012;-85
2021/11/09 03:19:59;;;;;;;;;;;9.00;91.90;;;;;;4365080;32;20022;-86
2021/11/09 03:47:27;;;;;;;;;;;8.80;92.30;;;;;;4363412;32;20410;-86
2021/11/09 03:49:59;;;;;;;;;;;8.80;92.30;;;;;;4364550;32;20135;-85
2021/11/09 03:52:40;;;;;;;;;;;8.80;92.20;;;;;;4364849;32;20333;-86
2021/11/09 03:55:08;;;;;;;;;;;8.80;92.20;;;;;;4351949;32;19993;-86
2021/11/09 03:57:46;;;;;;;;;;;8.80;92.10;;;;;;4351803;32;20401;-86
2021/11/09 04:00:28;;;;;;;;;;;8.80;92.10;;;;;;4364761;32;20068;-84
2021/11/09 04:03:15;;;;;;;;;;;8.80;92.10;;;;;;4351942;32;20001;-88
2021/11/09 04:05:45;;;;;;;;;;;8.70;92.00;;;;;;4351590;32;21906;-87
2021/11/09 04:08:31;;;;;;;;;;;8.80;92.00;;;;;;4351803;32;20010;-87
2021/11/09 04:13:40;;;;;;;;;;;8.80;92.00;;;;;;4377443;32;20428;-85
2021/11/09 05:01:06;;;;;;;;;;;8.50;92.10;;;;;;4363177;32;20012;-85
2021/11/09 05:10:32;;;;;;;;;;;8.40;92.20;;;;;;4375670;32;42216;-84
2021/11/09 05:13:00;;;;;;;;;;;8.40;92.20;;;;;;4349607;32;43960;-83
2021/11/09 05:15:27;;;;;;;;;;;8.30;92.20;;;;;;4349455;32;43977;-85
2021/11/09 05:17:57;;;;;;;;;;;8.40;92.20;;;;;;4349691;32;40957;-85
2021/11/09 05:20:25;;;;;;;;;;;8.40;92.30;;;;;;4362259;32;42256;-85
2021/11/09 05:22:56;;;;;;;;;;;8.30;92.30;;;;;;4361820;32;40498;-84
2021/11/09 05:25:23;;;;;;;;;;;8.30;92.30;;;;;;4349520;32;41626;-85
2021/11/09 05:27:52;;;;;;;;;;;8.30;92.40;;;;;;4362387;32;44744;-85
2021/11/09 05:30:24;;;;;;;;;;;8.30;92.30;;;;;;4349270;32;43705;-85
2021/11/09 05:32:58;;;;;;;;;;;8.30;92.30;;;;;;4362114;32;44831;-84
2021/11/09 05:35:26;;;;;;;;;;;8.30;92.30;;;;;;4349452;32;41935;-84
2021/11/09 05:37:58;;;;;;;;;;;8.30;92.40;;;;;;4375762;32;29557;-85
2021/11/09 05:40:29;;;;;;;;;;;8.20;92.40;;;;;;4362222;32;38069;-85
2021/11/09 05:43:01;;;;;;;;;;;8.30;92.40;;;;;;4363083;32;20015;-85
2021/11/09 05:45:31;;;;;;;;;;;8.20;92.40;;;;;;4361504;32;37988;-84
2021/11/09 05:48:01;;;;;;;;;;;8.20;92.50;;;;;;4362139;32;40552;-84
2021/11/09 05:50:32;;;;;;;;;;;8.20;92.80;;;;;;4361425;32;41582;-84
2021/11/09 05:53:01;;;;;;;;;;;8.20;92.50;;;;;;4361886;32;37126;-84
2021/11/09 05:55:28;;;;;;;;;;;8.10;92.60;;;;;;4375512;32;34702;-84
2021/11/09 05:57:55;;;;;;;;;;;8.10;92.70;;;;;;4349080;32;34829;-84
2021/11/09 06:00:25;;;;;;;;;;;8.10;92.70;;;;;;4376377;32;20393;-84
2021/11/09 06:02:52;;;;;;;;;;;8.00;92.80;;;;;;4361544;32;41477;-84
2021/11/09 06:05:22;;;;;;;;;;;8.10;92.80;;;;;;4362173;32;34569;-84
2021/11/09 06:07:49;;;;;;;;;;;8.10;92.80;;;;;;4375254;32;35325;-84
2021/11/09 06:10:16;;;;;;;;;;;8.10;92.80;;;;;;4363215;32;19996;-84
2021/11/09 06:12:44;;;;;;;;;;;8.10;92.80;;;;;;4366109;32;20080;-84
2021/11/09 06:15:13;;;;;;;;;;;8.10;93.10;;;;;;4365687;32;20016;-84
2021/11/09 06:17:40;;;;;;;;;;;8.10;92.60;;;;;;4378870;32;20427;-84
2021/11/09 06:20:08;;;;;;;;;;;8.10;92.60;;;;;;4365578;32;20367;-84
2021/11/09 06:22:38;;;;;;;;;;;8.10;92.60;;;;;;4377893;32;34344;-84
2021/11/09 06:25:06;;;;;;;;;;;8.10;92.60;;;;;;4352376;32;38644;-86
2021/11/09 06:27:36;;;;;;;;;;;8.10;92.60;;;;;;4365137;32;20001;-86
2021/11/09 06:30:04;;;;;;;;;;;8.10;92.70;;;;;;4364549;32;43899;-86
2021/11/09 06:32:34;;;;;;;;;;;8.10;92.70;;;;;;4364342;32;36079;-84
2021/11/09 06:35:02;;;;;;;;;;;8.10;92.80;;;;;;4365514;32;20016;-84
2021/11/09 06:37:33;;;;;;;;;;;8.00;92.80;;;;;;4353055;32;20402;-84
2021/11/09 06:40:04;;;;;;;;;;;8.00;92.80;;;;;;4364123;32;33801;-86
2021/11/09 06:42:34;;;;;;;;;;;8.00;92.80;;;;;;4364815;32;39481;-83
2021/11/09 06:45:04;;;;;;;;;;;7.90;92.80;;;;;;4352094;32;30987;-84
2021/11/09 06:47:31;;;;;;;;;;;7.90;92.90;;;;;;4363960;32;45767;-86
2021/11/09 06:50:02;;;;;;;;;;;7.90;92.90;;;;;;4364393;32;34434;-86
2021/11/09 06:52:33;;;;;;;;;;;7.90;93.00;;;;;;4364622;32;31248;-86
2021/11/09 06:55:04;;;;;;;;;;;7.90;93.00;;;;;;4377868;32;35396;-86
2021/11/09 06:57:41;;;;;;;;;;;7.90;93.00;;;;;;4363618;32;40672;-87
2021/11/09 07:00:10;;;;;;;;;;;7.90;93.00;;;;;;4376966;32;41942;-86
2021/11/09 07:02:37;;;;;;;;;;;7.90;93.00;;;;;;4363619;32;36817;-85
2021/11/09 07:05:05;;;;;;;;;;;7.80;92.90;;;;;;4377507;32;35519;-86
2021/11/09 07:07:38;;;;;;;;;;;7.80;93.00;;;;;;4365163;32;20004;-86
2021/11/09 07:10:07;;;;;;;;;;;7.80;93.00;;;;;;4363745;32;41453;-85
2021/11/09 07:12:35;;;;;;;;;;;7.80;92.90;;;;;;4363533;32;36208;-86
2021/11/09 07:15:05;;;;;;;;;;;7.80;92.90;;;;;;4351662;32;20556;-86
2021/11/09 07:17:38;;;;;;;;;;;7.80;92.90;;;;;;4364543;32;20020;-85
2021/11/09 07:20:16;;;;;;;;;;;7.80;92.80;;;;;;4377591;32;25999;-87
2021/11/09 07:22:44;;;;;;;;;;;7.80;92.80;;;;;;4351192;32;45213;-86
2021/11/09 07:25:19;;;;;;;;;;;7.80;92.80;;;;;;4363500;32;37062;-85
2021/11/09 07:27:49;;;;;;;;;;;7.80;92.80;;;;;;4364193;32;31342;-86
2021/11/09 07:30:17;;;;;;;;;;;7.80;92.90;;;;;;4352243;32;20452;-86
2021/11/09 07:32:46;;;;;;;;;;;7.80;92.90;;;;;;4351815;32;20011;-87
2021/11/09 07:35:15;;;;;;;;;;;7.80;92.90;;;;;;4352315;32;20022;-86
2021/11/09 07:37:47;;;;;;;;;;;7.80;92.90;;;;;;4378293;32;20012;-86
2021/11/09 07:40:17;;;;;;;;;;;7.80;92.90;;;;;;4350889;32;41340;-86
2021/11/09 07:42:47;;;;;;;;;;;7.80;92.90;;;;;;4363540;32;35161;-86
2021/11/09 07:45:17;;;;;;;;;;;7.80;93.00;;;;;;4363807;32;44576;-86
2021/11/09 07:51:01;;;;;;;;;;;7.80;93.00;;;;;;4377757;32;20011;-86
2021/11/09 07:53:34;;;;;;;;;;;7.70;93.00;;;;;;4364138;32;20005;-86
2021/11/09 07:56:15;;;;;;;;;;;7.70;93.00;;;;;;4363303;32;40010;-85
2021/11/09 08:01:18;;;;;;;;;;;7.70;93.10;;;;;;4377646;32;20016;-86
2021/11/09 08:06:50;;;;;;;;;;;7.70;93.10;;;;;;4363130;32;20410;-86
2021/11/09 08:09:28;;;;;;;;;;;7.70;93.10;;;;;;4361421;32;20096;-87
2021/11/09 08:12:00;;;;;;;;;;;7.70;93.20;;;;;;4348265;32;44994;-86
2021/11/09 08:14:29;;;;;;;;;;;7.70;93.20;;;;;;4348019;32;44887;-87
2021/11/09 08:16:56;;;;;;;;;;;7.60;93.30;;;;;;4360251;32;45025;-86
2021/11/09 08:19:24;;;;;;;;;;;7.60;93.30;;;;;;4348261;32;36194;-86
2021/11/09 08:21:54;;;;;;;;;;;7.60;93.40;;;;;;4360165;32;38123;-86
2021/11/09 08:24:22;;;;;;;;;;;7.60;93.40;;;;;;4349016;32;20017;-87
2021/11/09 08:26:49;;;;;;;;;;;7.60;93.50;;;;;;4347968;32;32846;-86
2021/11/09 08:29:25;;;;;;;;;;;7.50;93.50;;;;;;4348615;32;20001;-87
2021/11/09 08:31:54;;;;;;;;;;;7.50;93.50;;;;;;4360983;32;32880;-87
2021/11/09 08:34:25;;;;;;;;;;;7.50;93.50;;;;;;4359475;32;44777;-87
2021/11/09 08:36:56;;;;;;;;;;;7.60;93.60;;;;;;4348161;32;27275;-87
2021/11/09 08:39:35;;;;;;;;;;;7.60;93.60;;;;;;4361559;32;44712;-88
2021/11/09 08:47:34;;;;;;;;;;;7.60;93.60;;;;;;4349347;32;20004;-88
2021/11/09 08:50:02;;;;;;;;;;;7.60;93.60;;;;;;4347870;32;33900;-87
2021/11/09 08:52:31;;;;;;;;;;;7.60;93.70;;;;;;4348403;32;20398;-87
2021/11/09 09:06:36;;;;;;;;;;;7.70;93.80;;;;;;4355439;32;37848;-89
2021/11/09 09:09:09;;;;;;;;;;;7.70;93.80;;;;;;4360757;32;32323;-87
2021/11/09 09:11:37;;;;;;;;;;;7.70;93.80;;;;;;4360447;32;20000;-88
2021/11/09 09:14:10;;;;;;;;;;;7.70;93.80;;;;;;4348172;32;23184;-87
2021/11/09 09:16:45;;;;;;;;;;;7.70;93.90;;;;;;4348064;32;20448;-86
2021/11/09 09:19:41;;;;;;;;;;;7.70;93.90;;;;;;4354702;32;20009;-88
2021/11/09 09:22:14;;;;;;;;;;;7.70;93.90;;;;;;4348651;32;20112;-89
2021/11/09 09:57:42;;;;;;;;;;;8.20;94.00;;;;;;4362183;32;20029;-90
2021/11/09 10:00:10;;;;;;;;;;;8.20;94.00;;;;;;4347943;32;20128;-89
2021/11/09 10:02:48;;;;;;;;;;;8.20;93.90;;;;;;4347630;32;20044;-87
2021/11/09 10:05:16;;;;;;;;;;;8.30;93.90;;;;;;4360467;33;20060;-90
2021/11/09 10:07:54;;;;;;;;;;;8.30;93.90;;;;;;4360633;33;20028;-87
2021/11/09 10:10:26;;;;;;;;;;;8.40;93.90;;;;;;4360111;33;20444;-87
2021/11/09 10:13:08;;;;;;;;;;;8.50;93.80;;;;;;4348238;33;20013;-90
2021/11/09 10:15:37;;;;;;;;;;;8.50;93.80;;;;;;4360467;33;20052;-90
2021/11/09 10:18:19;;;;;;;;;;;8.60;93.80;;;;;;4347318;33;32045;-89
2021/11/09 10:20:50;;;;;;;;;;;8.70;93.80;;;;;;4347920;33;19997;-90
2021/11/09 10:23:26;;;;;;;;;;;8.70;93.70;;;;;;4348651;33;20414;-90
2021/11/09 10:25:59;;;;;;;;;;;8.80;93.70;;;;;;4347944;33;28029;-90
2021/11/09 10:28:26;;;;;;;;;;;8.90;93.70;;;;;;4361262;33;20023;-92
2021/11/09 10:30:58;;;;;;;;;;;8.90;93.60;;;;;;4360100;33;21239;-92
2021/11/09 10:33:27;;;;;;;;;;;9.00;93.60;;;;;;4361360;33;20015;-92
2021/11/09 10:35:58;;;;;;;;;;;9.10;93.50;;;;;;4348618;33;20057;-91
2021/11/09 10:38:29;;;;;;;;;;;9.10;93.50;;;;;;4361399;33;20018;-90
2021/11/09 10:40:58;;;;;;;;;;;9.20;93.40;;;;;;4348588;33;20035;-91
2021/11/09 10:43:29;;;;;;;;;;;9.20;93.30;;;;;;4360357;33;20004;-90
2021/11/09 10:45:56;;;;;;;;;;;9.30;93.30;;;;;;4348653;33;20372;-91
2021/11/09 10:48:27;;;;;;;;;;;9.40;93.30;;;;;;4349055;33;20022;-87
2021/11/09 10:50:59;;;;;;;;;;;9.40;93.30;;;;;;4347759;33;20011;-88
2021/11/09 10:53:57;;;;;;;;;;;9.50;93.30;;;;;;4360134;33;20068;-86
2021/11/09 11:04:35;;;;;;;;;;;9.70;93.00;;;;;;4365213;32;20044;-89
2021/11/09 11:07:04;;;;;;;;;;;9.70;92.80;;;;;;4364855;32;30249;-87
2021/11/09 11:09:41;;;;;;;;;;;9.70;92.80;;;;;;4364277;32;37441;-85
2021/11/09 11:12:09;;;;;;;;;;;9.80;92.80;;;;;;4351746;32;34863;-88
2021/11/09 11:14:41;;;;;;;;;;;9.80;92.80;;;;;;4377561;32;24026;-89
2021/11/09 11:17:16;;;;;;;;;;;9.90;92.70;;;;;;4364705;32;32314;-86
2021/11/09 11:19:43;;;;;;;;;;;9.90;92.60;;;;;;4364141;32;35815;-88
2021/11/09 11:22:17;;;;;;;;;;;9.90;92.70;;;;;;4364626;32;21933;-87
2021/11/09 11:24:54;;;;;;;;;;;10.00;92.70;;;;;;4352292;32;20000;-88
2021/11/09 11:27:32;;;;;;;;;;;9.90;92.60;;;;;;4366029;32;20020;-85
2021/11/09 11:30:03;;;;;;;;;;;10.00;92.60;;;;;;4365461;32;20087;-89
2021/11/09 11:32:33;;;;;;;;;;;10.10;92.50;;;;;;4364750;32;20103;-88
2021/11/09 11:35:06;;;;;;;;;;;10.10;92.50;;;;;;4365329;32;20027;-91
2021/11/09 11:37:40;;;;;;;;;;;10.20;92.50;;;;;;4365373;32;20020;-89
2021/11/09 11:40:07;;;;;;;;;;;10.20;92.50;;;;;;4378796;32;20009;-86
2021/11/09 11:42:39;;;;;;;;;;;10.20;92.40;;;;;;4364763;32;20043;-86
2021/11/09 11:45:12;;;;;;;;;;;10.30;92.30;;;;;;4365402;32;20008;-87
2021/11/09 11:48:01;;;;;;;;;;;10.30;92.40;;;;;;4364714;32;20063;-88
2021/11/09 11:50:42;;;;;;;;;;;10.30;92.40;;;;;;4365049;32;20022;-87
2021/11/09 11:53:10;;;;;;;;;;;10.40;92.30;;;;;;4364779;32;20405;-89
2021/11/09 11:55:40;;;;;;;;;;;10.50;92.40;;;;;;4364443;32;20071;-89
2021/11/09 11:58:15;;;;;;;;;;;10.50;92.30;;;;;;4352389;32;20012;-91
2021/11/09 12:01:07;;;;;;;;;;;10.50;92.20;;;;;;4365092;32;20068;-91
2021/11/09 12:03:37;;;;;;;;;;;10.60;92.30;;;;;;4377499;32;20004;-89
2021/11/09 12:06:15;;;;;;;;;;;10.60;92.10;;;;;;4364947;32;20016;-88
2021/11/09 12:08:50;;;;;;;;;;;10.70;92.10;;;;;;4363663;32;20369;-90
2021/11/09 12:11:24;;;;;;;;;;;10.70;92.20;;;;;;4377859;32;20054;-89
2021/11/09 12:13:55;;;;;;;;;;;10.70;92.10;;;;;;4351508;32;32199;-88
2021/11/09 12:16:45;;;;;;;;;;;10.70;92.10;;;;;;4378152;32;20013;-89
2021/11/09 12:19:31;;;;;;;;;;;10.80;92.20;;;;;;4351200;32;45184;-91
2021/11/09 12:22:05;;;;;;;;;;;10.80;92.10;;;;;;4352044;32;20007;-89
2021/11/09 12:24:53;;;;;;;;;;;10.90;91.90;;;;;;4351009;32;31743;-89
2021/11/09 12:27:29;;;;;;;;;;;10.90;91.90;;;;;;4350924;32;40380;-90
2021/11/09 12:30:03;;;;;;;;;;;10.90;91.80;;;;;;4352282;32;22095;-93
2021/11/09 12:32:35;;;;;;;;;;;10.90;92.00;;;;;;4364384;32;31012;-92
2021/11/09 12:35:14;;;;;;;;;;;11.00;92.00;;;;;;4351253;32;39720;-92
2021/11/09 12:37:43;;;;;;;;;;;11.00;91.90;;;;;;4352171;32;22926;-89
2021/11/09 12:40:31;;;;;;;;;;;11.00;91.80;;;;;;4364167;32;27642;-90
2021/11/09 12:43:06;;;;;;;;;;;11.10;91.70;;;;;;4352857;32;20000;-91
2021/11/09 12:45:34;;;;;;;;;;;11.10;91.70;;;;;;4365435;32;20027;-90
2021/11/09 12:48:07;;;;;;;;;;;11.20;91.80;;;;;;4364326;32;19997;-90
2021/11/09 12:50:35;;;;;;;;;;;11.20;91.80;;;;;;4352278;32;20001;-90
2021/11/09 12:53:07;;;;;;;;;;;11.20;91.80;;;;;;4376962;32;39414;-93
2021/11/09 12:55:42;;;;;;;;;;;11.30;91.70;;;;;;4365631;32;20043;-91
2021/11/09 12:58:22;;;;;;;;;;;11.30;91.80;;;;;;4377351;32;37371;-94
2021/11/09 13:01:04;;;;;;;;;;;11.30;91.70;;;;;;4352122;32;20397;-91
2021/11/09 13:03:40;;;;;;;;;;;11.40;91.60;;;;;;4364202;32;20023;-90
2021/11/09 13:06:18;;;;;;;;;;;11.40;91.50;;;;;;4364875;32;20016;-91
2021/11/09 13:08:58;;;;;;;;;;;11.40;91.30;;;;;;4364977;32;20063;-90
2021/11/09 13:11:38;;;;;;;;;;;11.40;91.50;;;;;;4351736;32;20024;-91
2021/11/09 13:14:09;;;;;;;;;;;11.50;91.50;;;;;;4365448;32;20057;-91
2021/11/09 13:17:02;;;;;;;;;;;11.50;91.60;;;;;;4367952;32;20001;-92
2021/11/09 13:19:38;;;;;;;;;;;11.50;91.60;;;;;;4364502;32;20008;-95
2021/11/09 13:22:10;;;;;;;;;;;11.60;91.50;;;;;;4352601;32;19996;-92
2021/11/09 13:24:47;;;;;;;;;;;11.60;91.50;;;;;;4352469;32;20012;-93
2021/11/09 13:27:32;;;;;;;;;;;11.60;91.50;;;;;;4352984;32;20032;-92
2021/11/09 13:30:12;;;;;;;;;;;11.60;91.50;;;;;;4352781;32;20012;-92
2021/11/09 13:32:49;;;;;;;;;;;11.70;91.50;;;;;;4352290;32;20441;-93
2021/11/09 13:35:25;;;;;;;;;;;11.70;91.50;;;;;;4352228;32;20000;-93
2021/11/09 13:38:27;;;;;;;;;;;11.70;91.40;;;;;;4352761;32;19997;-93
2021/11/09 13:41:02;;;;;;;;;;;11.70;91.40;;;;;;4356241;32;20011;-92
2021/11/09 13:43:46;;;;;;;;;;;11.80;91.40;;;;;;4352615;32;20056;-92
2021/11/09 13:46:20;;;;;;;;;;;11.80;91.40;;;;;;4352191;32;20000;-92
2021/11/09 13:49:01;;;;;;;;;;;11.80;91.40;;;;;;4364963;32;20357;-94
2021/11/09 13:51:40;;;;;;;;;;;11.80;91.40;;;;;;4365133;32;20027;-91
2021/11/09 13:54:28;;;;;;;;;;;11.80;91.30;;;;;;4352447;32;20139;-92
2021/11/09 13:57:03;;;;;;;;;;;11.90;91.30;;;;;;4351959;32;20032;-93
2021/11/09 13:59:35;;;;;;;;;;;11.90;91.20;;;;;;4377985;32;20075;-93
2021/11/09 14:02:38;;;;;;;;;;;11.90;91.20;;;;;;4351611;32;20039;-93
2021/11/09 14:08:09;;;;;;;;;;;12.00;91.00;;;;;;4364578;32;20057;-93
2021/11/09 14:16:42;;;;;;;;;;;12.00;91.00;;;;;;4364240;32;20056;-91
2021/11/09 14:19:23;;;;;;;;;;;12.10;90.90;;;;;;4352280;32;20373;-93
2021/11/09 14:21:59;;;;;;;;;;;12.10;90.90;;;;;;4352370;32;20402;-93
2021/11/09 14:24:33;;;;;;;;;;;12.10;90.80;;;;;;4364555;32;20005;-93
2021/11/09 14:27:22;;;;;;;;;;;12.10;90.60;;;;;;4365328;32;20435;-92
2021/11/09 14:29:56;;;;;;;;;;;12.20;90.50;;;;;;4352142;32;20000;-93
2021/11/09 14:32:28;;;;;;;;;;;12.20;90.50;;;;;;4367365;32;20024;-92
2021/11/09 14:35:01;;;;;;;;;;;12.20;90.50;;;;;;4355176;32;20013;-92
2021/11/09 14:37:35;;;;;;;;;;;12.20;90.30;;;;;;4367446;32;20008;-92
2021/11/09 14:40:15;;;;;;;;;;;12.20;90.30;;;;;;4367414;32;20039;-93
2021/11/09 14:43:11;;;;;;;;;;;12.30;90.20;;;;;;4354165;32;36975;-92
2021/11/09 14:45:39;;;;;;;;;;;12.30;90.20;;;;;;4366773;32;24147;-92
2021/11/09 14:48:12;;;;;;;;;;;12.30;90.10;;;;;;4354496;32;20001;-93
2021/11/09 14:51:08;;;;;;;;;;;12.40;90.10;;;;;;4355205;32;20000;-92
2021/11/09 14:56:37;;;;;;;;;;;12.40;89.90;;;;;;4367130;32;20031;-93
2021/11/09 14:59:10;;;;;;;;;;;12.40;89.70;;;;;;4354354;32;20009;-93
2021/11/09 15:04:53;;;;;;;;;;;12.50;89.60;;;;;;4366508;32;20529;-93
2021/11/09 15:07:31;;;;;;;;;;;12.50;89.40;;;;;;4354514;32;19996;-94
2021/11/09 15:27:21;;;;;;;;;;;12.70;88.60;;;;;;4366209;32;20048;-93
2021/11/09 15:30:04;;;;;;;;;;;12.70;88.40;;;;;;4354018;32;20027;-93
2021/11/09 15:32:37;;;;;;;;;;;12.70;88.20;;;;;;4354423;32;20015;-94
2021/11/09 15:38:01;;;;;;;;;;;12.70;88.00;;;;;;4353804;32;30429;-93
2021/11/09 15:40:33;;;;;;;;;;;12.70;88.00;;;;;;4353909;32;20011;-93
2021/11/09 15:43:07;;;;;;;;;;;12.70;87.90;;;;;;4352665;32;20400;-93
2021/11/09 15:45:39;;;;;;;;;;;12.70;87.80;;;;;;4366229;32;19996;-92
2021/11/09 15:48:09;;;;;;;;;;;12.70;87.80;;;;;;4353813;32;20012;-94
2021/11/09 15:50:39;;;;;;;;;;;12.70;87.80;;;;;;4353663;32;20038;-94
2021/11/09 15:53:13;;;;;;;;;;;12.80;87.80;;;;;;4366622;32;20027;-93
2021/11/09 15:55:43;;;;;;;;;;;12.80;87.70;;;;;;4366014;32;21391;-93
2021/11/09 15:58:16;;;;;;;;;;;12.70;87.60;;;;;;4353930;32;20004;-93
2021/11/09 16:00:48;;;;;;;;;;;12.80;87.60;;;;;;4366369;32;20022;-93
2021/11/09 16:03:21;;;;;;;;;;;12.80;87.60;;;;;;4352867;32;28736;-92
2021/11/09 16:05:51;;;;;;;;;;;12.70;87.50;;;;;;4366305;32;20018;-93
2021/11/09 16:08:20;;;;;;;;;;;12.80;87.60;;;;;;4353462;32;20414;-92
2021/11/09 16:10:52;;;;;;;;;;;12.70;87.40;;;;;;4366534;32;20018;-93
2021/11/09 16:13:28;;;;;;;;;;;12.70;87.40;;;;;;4365270;32;27295;-92
2021/11/09 16:15:58;;;;;;;;;;;12.70;87.50;;;;;;4366052;32;20004;-92
2021/11/09 16:18:35;;;;;;;;;;;12.80;87.50;;;;;;4353560;32;20005;-92
2021/11/09 16:21:07;;;;;;;;;;;12.80;87.40;;;;;;4353237;32;20078;-92
2021/11/09 16:23:37;;;;;;;;;;;12.80;87.40;;;;;;4365861;32;20060;-92
2021/11/09 16:26:13;;;;;;;;;;;12.70;87.30;;;;;;4352527;32;36244;-93
2021/11/09 16:28:43;;;;;;;;;;;12.70;87.30;;;;;;4352490;32;34930;-93
2021/11/09 16:31:19;;;;;;;;;;;12.70;87.20;;;;;;4353572;32;20035;-92
2021/11/09 16:33:54;;;;;;;;;;;12.70;87.20;;;;;;4353023;32;28505;-93
2021/11/09 16:36:26;;;;;;;;;;;12.80;87.30;;;;;;4365288;32;23624;-93
2021/11/09 16:39:10;;;;;;;;;;;12.70;87.10;;;;;;4353403;32;20103;-93
2021/11/09 16:41:43;;;;;;;;;;;12.80;87.20;;;;;;4364888;32;20257;-92
2021/11/09 16:44:18;;;;;;;;;;;12.80;87.10;;;;;;4365909;32;20036;-92
2021/11/09 16:46:54;;;;;;;;;;;12.80;86.90;;;;;;4353073;32;20007;-93
2021/11/09 16:52:04;;;;;;;;;;;12.70;86.90;;;;;;4365522;32;19993;-94
2021/11/09 16:54:45;;;;;;;;;;;12.70;86.80;;;;;;4365003;32;20029;-93
2021/11/09 18:02:25;;;;;;;;;;;12.40;85.70;;;;;;4363705;32;20000;-92
2021/11/09 18:13:13;;;;;;;;;;;12.30;85.90;;;;;;4364022;32;20003;-91
2021/11/09 18:21:17;;;;;;;;;;;12.20;85.50;;;;;;4364290;32;20402;-91
2021/11/09 18:23:47;;;;;;;;;;;12.20;85.50;;;;;;4351946;32;20011;-91
2021/11/09 18:26:23;;;;;;;;;;;12.20;85.60;;;;;;4364146;32;20082;-91
2021/11/09 18:28:50;;;;;;;;;;;12.20;85.60;;;;;;4363262;32;39767;-90
2021/11/09 18:31:21;;;;;;;;;;;12.20;85.70;;;;;;4363745;32;20069;-91
2021/11/09 18:33:55;;;;;;;;;;;12.20;85.70;;;;;;4363561;32;20016;-91
2021/11/09 18:36:25;;;;;;;;;;;12.10;85.60;;;;;;4364188;32;20059;-91
2021/11/09 18:38:55;;;;;;;;;;;12.10;85.60;;;;;;4351417;32;19993;-91
2021/11/09 18:41:23;;;;;;;;;;;12.10;85.50;;;;;;4351127;32;20005;-91
2021/11/09 18:43:53;;;;;;;;;;;12.10;85.50;;;;;;4350844;32;25035;-91
2021/11/09 18:46:24;;;;;;;;;;;12.10;85.70;;;;;;4363861;32;20402;-91
2021/11/09 18:48:59;;;;;;;;;;;12.10;85.50;;;;;;4376489;32;30647;-92
2021/11/09 18:51:31;;;;;;;;;;;12.10;85.30;;;;;;4363431;32;23411;-91
2021/11/09 18:54:04;;;;;;;;;;;12.00;85.10;;;;;;4364634;32;20106;-91
2021/11/09 18:56:31;;;;;;;;;;;12.00;85.00;;;;;;4364142;32;20001;-91
2021/11/09 18:59:06;;;;;;;;;;;12.00;84.90;;;;;;4363484;32;20004;-92
2021/11/09 19:01:33;;;;;;;;;;;12.00;84.90;;;;;;4650989;27;21215;-91
2021/11/09 19:04:01;;;;;;;;;;;11.90;84.80;;;;;;4364479;32;19992;-92
2021/11/09 19:06:28;;;;;;;;;;;11.90;84.80;;;;;;4362778;32;36709;-91
2021/11/09 19:08:59;;;;;;;;;;;11.90;84.60;;;;;;4364100;32;20072;-90
2021/11/09 19:11:27;;;;;;;;;;;11.80;84.60;;;;;;4376040;32;20955;-91
2021/11/09 19:13:54;;;;;;;;;;;11.80;84.70;;;;;;4362814;32;26067;-90
2021/11/09 19:16:27;;;;;;;;;;;11.80;84.70;;;;;;4363419;32;20011;-90
2021/11/09 19:18:57;;;;;;;;;;;11.80;84.70;;;;;;4378878;32;20023;-91
2021/11/09 19:21:24;;;;;;;;;;;11.80;84.70;;;;;;4378634;32;20052;-91
2021/11/09 19:24:00;;;;;;;;;;;11.70;84.50;;;;;;4367063;32;20007;-90